createdAt,value
2023-01-09T00:01:50.157Z,95983.34
2023-01-09T00:04:19.268Z,95973.50
2023-01-09T00:06:53.846Z,95962.50
2023-01-09T00:09:23.122Z,95968.00
2023-01-09T00:11:52.226Z,95971.91
2023-01-09T00:14:20.870Z,95965.25
2023-01-09T00:16:51.300Z,95960.91
2023-01-09T00:19:19.822Z,95961.72
2023-01-09T00:21:48.394Z,95960.91
2023-01-09T00:24:16.943Z,95962.50
2023-01-09T00:26:45.493Z,95965.59
2023-01-09T00:29:14.583Z,95959.31
2023-01-09T00:31:43.058Z,95954.59
2023-01-09T00:34:13.068Z,95948.31
2023-01-09T00:36:41.590Z,95951.06
2023-01-09T00:39:10.020Z,95948.31
2023-01-09T00:41:41.794Z,95948.31
2023-01-09T00:44:14.343Z,95953.81
2023-01-09T00:46:48.663Z,95949.47
2023-01-09T00:49:19.433Z,95952.22
2023-01-09T00:51:48.457Z,95936.84
2023-01-09T00:54:19.963Z,95947.50
2023-01-09T00:56:49.710Z,95941.22
2023-01-09T00:59:18.305Z,95945.09
2023-01-09T01:01:46.938Z,95939.59
2023-01-09T01:04:32.735Z,95940.06
2023-01-09T01:07:20.181Z,95941.22
2023-01-09T01:09:48.624Z,95923.09
2023-01-09T01:12:17.171Z,95934.09
2023-01-09T01:14:45.818Z,95935.72
2023-01-09T01:17:14.239Z,95932.50
2023-01-09T01:19:42.779Z,95927.81
2023-01-09T01:22:12.581Z,95928.59
2023-01-09T01:24:41.201Z,95932.50
2023-01-09T01:27:09.618Z,95933.31
2023-01-09T01:29:38.065Z,95938.00
2023-01-09T01:32:06.541Z,95929.75
2023-01-09T01:34:34.948Z,95924.25
2023-01-09T01:37:03.505Z,95930.56
2023-01-09T01:39:33.270Z,95935.25
2023-01-09T01:42:01.784Z,95938.00
2023-01-09T01:45:01.582Z,95942.34
2023-01-09T01:47:35.993Z,95939.59
2023-01-09T01:50:09.314Z,95943.50
2023-01-09T01:52:38.732Z,95943.50
2023-01-09T01:55:10.943Z,95942.69
2023-01-09T01:57:43.860Z,95927.81
2023-01-09T02:00:13.454Z,95930.88
2023-01-09T02:02:47.214Z,95932.50
2023-01-09T02:05:16.616Z,95936.38
2023-01-09T02:07:45.009Z,95942.69
2023-01-09T02:10:15.859Z,95941.06
2023-01-09T02:12:44.379Z,95946.56
2023-01-09T02:15:16.055Z,95946.56
2023-01-09T02:18:21.100Z,95952.06
2023-01-09T02:20:57.061Z,95934.78
2023-01-09T02:24:01.862Z,95940.28
2023-01-09T02:26:45.243Z,95942.22
2023-01-09T02:29:40.953Z,95945.78
2023-01-09T02:32:20.561Z,95945.78
2023-01-09T02:34:59.591Z,95944.97
2023-01-09T02:37:38.065Z,95951.28
2023-01-09T02:40:16.973Z,95944.97
2023-01-09T02:42:48.277Z,95944.16
2023-01-09T02:45:17.143Z,95942.56
2023-01-09T02:47:47.869Z,95944.16
2023-01-09T02:50:20.980Z,95938.66
2023-01-09T02:53:22.319Z,95935.13
2023-01-09T02:56:01.405Z,95937.06
2023-01-09T02:58:44.283Z,95950.47
2023-01-09T03:01:26.525Z,95949.66
2023-01-09T03:04:05.518Z,95948.88
2023-01-09T03:06:44.292Z,95955.16
2023-01-09T03:09:20.121Z,95961.81
2023-01-09T03:11:52.136Z,95970.06
2023-01-09T03:14:23.847Z,95964.56
2023-01-09T03:16:59.389Z,95968.47
2023-01-09T03:19:33.372Z,95981.06
2023-01-09T03:22:02.225Z,95984.16
2023-01-09T03:24:30.755Z,95997.56
2023-01-09T03:26:59.242Z,96011.31
2023-01-09T03:29:29.506Z,96008.09
2023-01-09T03:31:58.108Z,96006.97
2023-01-09T03:34:26.569Z,96006.97
2023-01-09T03:36:56.406Z,96011.31
2023-01-09T03:39:24.831Z,96011.66
2023-01-09T03:41:53.307Z,96021.84
2023-01-09T03:44:21.901Z,96021.84
2023-01-09T03:46:50.444Z,96028.16
2023-01-09T03:49:19.193Z,96025.41
2023-01-09T03:51:47.689Z,96035.59
2023-01-09T03:54:17.586Z,96032.84
2023-01-09T03:56:46.029Z,96031.25
2023-01-09T03:59:14.476Z,96037.56
2023-01-09T04:01:43.000Z,96046.59
2023-01-09T04:04:11.569Z,96051.31
2023-01-09T04:06:40.039Z,96054.84
2023-01-09T04:09:08.509Z,96060.34
2023-01-09T04:11:38.331Z,96054.41
2023-01-09T04:14:06.892Z,96069.75
2023-01-09T04:16:35.386Z,96070.56
2023-01-09T04:19:03.994Z,96084.66
2023-01-09T04:21:32.474Z,96092.44
2023-01-09T04:24:01.110Z,96100.22
2023-01-09T04:26:29.810Z,96096.22
2023-01-09T04:29:00.431Z,96109.63
2023-01-09T04:31:29.030Z,96107.31
2023-01-09T04:33:57.643Z,96108.13
2023-01-09T04:36:26.178Z,96103.88
2023-01-09T04:38:54.686Z,96113.06
2023-01-09T04:41:48.978Z,96109.31
2023-01-09T04:44:20.109Z,96119.94
2023-01-09T04:46:48.963Z,96136.88
2023-01-09T04:49:17.466Z,96146.94
2023-01-09T04:51:46.026Z,96153.88
2023-01-09T04:54:14.872Z,96163.84
2023-01-09T04:56:43.620Z,96167.34
2023-01-09T04:59:12.092Z,96168.91
2023-01-09T05:01:42.148Z,96181.03
2023-01-09T05:04:11.235Z,96187.97
2023-01-09T05:06:39.797Z,96197.56
2023-01-09T05:09:08.288Z,96206.75
2023-01-09T05:11:36.744Z,96219.13
2023-01-09T05:14:05.200Z,96227.13
2023-01-09T05:16:33.955Z,96226.44
2023-01-09T05:19:03.710Z,96242.25
2023-01-09T05:21:32.142Z,96235.16
2023-01-09T05:24:00.654Z,96243.16
2023-01-09T05:26:29.186Z,96252.38
2023-01-09T05:28:57.694Z,96275.69
2023-01-09T05:31:27.390Z,96275.31
2023-01-09T05:33:55.846Z,96277.72
2023-01-09T05:36:25.954Z,96276.94
2023-01-09T05:38:54.370Z,96293.13
2023-01-09T05:41:24.253Z,96298.63
2023-01-09T05:43:52.834Z,96315.19
2023-01-09T05:46:21.585Z,96316.34
2023-01-09T05:48:50.087Z,96317.50
2023-01-09T05:51:18.862Z,96319.00
2023-01-09T05:53:48.778Z,96322.56
2023-01-09T05:56:17.444Z,96336.00
2023-01-09T05:58:45.905Z,96345.41
2023-01-09T06:01:14.408Z,96344.97
2023-01-09T06:03:42.969Z,96346.00
2023-01-09T06:06:11.442Z,96346.78
2023-01-09T06:08:39.830Z,96346.34
2023-01-09T06:11:09.604Z,96344.03
2023-01-09T06:13:38.081Z,96338.53
2023-01-09T06:16:07.760Z,96340.81
2023-01-09T06:18:36.278Z,96347.03
2023-01-09T06:21:05.036Z,96358.06
2023-01-09T06:23:33.460Z,96356.56
2023-01-09T06:26:02.243Z,96376.31
2023-01-09T06:28:32.167Z,96374.72
2023-01-09T06:31:00.648Z,96380.22
2023-01-09T06:33:29.112Z,96385.41
2023-01-09T06:35:57.585Z,96386.53
2023-01-09T06:38:26.165Z,96388.84
2023-01-09T06:40:54.648Z,96387.25
2023-01-09T06:43:23.261Z,96391.84
2023-01-09T06:45:53.205Z,96379.13
2023-01-09T06:48:21.702Z,96376.59
2023-01-09T06:50:50.175Z,96372.13
2023-01-09T06:53:18.969Z,96374.78
2023-01-09T06:55:47.811Z,96380.19
2023-01-09T06:58:16.454Z,96385.25
2023-01-09T07:00:45.204Z,96388.00
2023-01-09T07:03:19.616Z,96395.81
2023-01-09T07:05:48.185Z,96398.09
2023-01-09T07:08:17.029Z,96396.50
2023-01-09T07:10:46.090Z,96404.34
2023-01-09T07:13:14.566Z,96398.38
2023-01-09T07:15:43.122Z,96403.44
2023-01-09T07:18:11.655Z,96404.13
2023-01-09T07:20:41.663Z,96409.63
2023-01-09T07:23:12.480Z,96404.81
2023-01-09T07:25:41.191Z,96409.53
2023-01-09T07:28:09.692Z,96408.72
2023-01-09T07:30:38.141Z,96413.75
2023-01-09T07:33:06.578Z,96418.81
2023-01-09T07:35:35.121Z,96425.47
2023-01-09T07:38:04.951Z,96434.44
2023-01-09T07:40:33.445Z,96424.09
2023-01-09T07:43:01.952Z,96427.19
2023-01-09T07:45:30.363Z,96431.44
2023-01-09T07:47:58.921Z,96442.69
2023-01-09T07:50:27.417Z,96436.94
2023-01-09T07:52:55.839Z,96439.44
2023-01-09T07:55:25.661Z,96438.72
2023-01-09T07:57:54.189Z,96429.75
2023-01-09T08:00:23.189Z,96433.41
2023-01-09T08:02:55.213Z,96440.28
2023-01-09T08:05:23.895Z,96439.34
2023-01-09T08:07:52.370Z,96434.06
2023-01-09T08:10:21.208Z,96433.59
2023-01-09T08:12:51.294Z,96429.13
2023-01-09T08:15:19.975Z,96429.81
2023-01-09T08:17:48.587Z,96426.47
2023-01-09T08:20:18.598Z,96423.59
2023-01-09T08:22:49.563Z,96417.94
2023-01-09T08:25:18.960Z,96426.88
2023-01-09T08:27:48.039Z,96427.22
2023-01-09T08:30:19.209Z,96413.34
2023-01-09T08:32:50.474Z,96416.75
2023-01-09T08:35:19.327Z,96414.22
2023-01-09T08:37:48.743Z,96424.41
2023-01-09T08:40:18.021Z,96417.94
2023-01-09T08:43:03.921Z,96411.53
2023-01-09T08:45:51.765Z,96416.22
2023-01-09T08:48:20.285Z,96413.00
2023-01-09T08:50:48.785Z,96405.09
2023-01-09T08:53:17.353Z,96406.56
2023-01-09T08:55:45.814Z,96411.25
2023-01-09T08:58:14.270Z,96412.75
2023-01-09T09:00:44.113Z,96415.69
2023-01-09T09:03:12.658Z,96415.22
2023-01-09T09:05:41.200Z,96413.16
2023-01-09T09:08:09.907Z,96416.56
2023-01-09T09:10:38.395Z,96419.31
2023-01-09T09:13:06.843Z,96423.19
2023-01-09T09:15:38.029Z,96423.06
2023-01-09T09:18:09.154Z,96423.88
2023-01-09T09:20:39.105Z,96426.28
2023-01-09T09:23:08.692Z,96431.44
2023-01-09T09:25:38.468Z,96426.44
2023-01-09T09:28:08.022Z,96424.16
2023-01-09T09:30:36.599Z,96436.75
2023-01-09T09:33:05.861Z,96435.13
2023-01-09T09:35:35.929Z,96432.84
2023-01-09T09:38:06.166Z,96434.00
2023-01-09T09:41:07.161Z,96422.53
2023-01-09T09:44:10.051Z,96430.09
2023-01-09T09:46:44.650Z,96431.25
2023-01-09T09:49:18.498Z,96424.59
2023-01-09T09:52:05.154Z,96428.63
2023-01-09T09:54:37.926Z,96418.91
2023-01-09T09:57:11.621Z,96422.94
2023-01-09T09:59:43.021Z,96417.56
2023-01-09T10:02:26.759Z,96419.97
2023-01-09T10:05:01.404Z,96423.19
2023-01-09T10:07:41.704Z,96422.84
2023-01-09T10:10:18.306Z,96435.94
2023-01-09T10:12:53.379Z,96430.44
2023-01-09T10:15:31.911Z,96433.66
2023-01-09T10:18:12.981Z,96429.75
2023-01-09T10:20:51.932Z,96436.56
2023-01-09T10:23:53.346Z,96430.72
2023-01-09T10:26:28.542Z,96427.63
2023-01-09T10:29:21.406Z,96423.41
2023-01-09T10:32:01.660Z,96420.66
2023-01-09T10:34:46.807Z,96420.66
2023-01-09T10:37:19.160Z,96412.88
2023-01-09T10:39:53.636Z,96401.88
2023-01-09T10:42:30.588Z,96405.88
2023-01-09T10:45:04.676Z,96404.41
2023-01-09T10:47:34.333Z,96404.41
2023-01-09T10:50:15.567Z,96406.00
2023-01-09T10:52:44.637Z,96402.13
2023-01-09T10:55:20.312Z,96400.84
2023-01-09T10:57:54.124Z,96400.50
2023-01-09T11:00:25.150Z,96403.72
2023-01-09T11:02:54.709Z,96406.94
2023-01-09T11:05:25.515Z,96402.25
2023-01-09T11:07:58.276Z,96401.44
2023-01-09T11:10:46.464Z,96405.81
2023-01-09T11:13:19.694Z,96403.06
2023-01-09T11:16:00.980Z,96403.84
2023-01-09T11:18:29.587Z,96401.44
2023-01-09T11:21:12.922Z,96397.56
2023-01-09T11:23:41.423Z,96411.78
2023-01-09T11:26:24.028Z,96403.06
2023-01-09T11:29:11.869Z,96410.84
2023-01-09T11:31:41.717Z,96413.13
2023-01-09T11:34:17.717Z,96409.91
2023-01-09T11:36:47.284Z,96418.50
2023-01-09T11:39:24.714Z,96421.59
2023-01-09T11:41:56.753Z,96423.53
2023-01-09T11:44:26.350Z,96418.38
2023-01-09T11:46:54.877Z,96426.63
2023-01-09T11:49:25.384Z,96417.56
2023-01-09T11:52:15.875Z,96422.25
2023-01-09T11:54:50.408Z,96416.75
2023-01-09T11:57:22.350Z,96414.00
2023-01-09T11:59:51.457Z,96422.25
2023-01-09T12:02:45.289Z,96416.28
2023-01-09T12:05:22.858Z,96412.88
2023-01-09T12:08:13.194Z,96423.19
2023-01-09T12:11:00.016Z,96420.44
2023-01-09T12:13:46.845Z,96415.41
2023-01-09T12:16:25.427Z,96418.63
2023-01-09T12:19:06.591Z,96421.84
2023-01-09T12:21:36.594Z,96411.66
2023-01-09T12:24:36.318Z,96413.38
2023-01-09T12:27:20.093Z,96406.28
2023-01-09T12:30:05.363Z,96413.38
2023-01-09T12:32:50.670Z,96417.75
2023-01-09T12:35:31.894Z,96411.09
2023-01-09T12:38:21.870Z,96403.66
2023-01-09T12:41:12.658Z,96400.09
2023-01-09T12:43:50.145Z,96399.28
2023-01-09T12:46:22.042Z,96402.84
2023-01-09T12:49:22.145Z,96405.59
2023-01-09T12:51:55.026Z,96397.69
2023-01-09T12:54:32.572Z,96401.69
2023-01-09T12:57:04.365Z,96397.81
2023-01-09T12:59:38.042Z,96404.09
2023-01-09T13:02:18.322Z,96406.84
2023-01-09T13:04:53.158Z,96414.31
2023-01-09T13:07:25.368Z,96415.91
2023-01-09T13:09:59.718Z,96404.91
2023-01-09T13:12:31.579Z,96413.16
2023-01-09T13:15:03.763Z,96412.03
2023-01-09T13:17:39.884Z,96417.53
2023-01-09T13:20:21.026Z,96414.78
2023-01-09T13:22:52.370Z,96414.44
2023-01-09T13:25:36.173Z,96410.88
2023-01-09T13:28:12.977Z,96412.03
2023-01-09T13:30:55.159Z,96410.88
2023-01-09T13:33:29.512Z,96412.03
2023-01-09T13:35:59.748Z,96401.81
2023-01-09T13:38:30.650Z,96408.13
2023-01-09T13:41:26.838Z,96422.34
2023-01-09T13:43:58.036Z,96414.44
2023-01-09T13:46:36.650Z,96424.63
2023-01-09T13:49:08.751Z,96422.69
2023-01-09T13:51:58.209Z,96423.03
2023-01-09T13:55:01.841Z,96423.50
2023-01-09T13:57:33.069Z,96419.13
2023-01-09T14:00:34.673Z,96427.06
2023-01-09T14:03:17.779Z,96432.56
2023-01-09T14:06:17.468Z,96424.63
2023-01-09T14:08:48.784Z,96433.22
2023-01-09T14:11:23.015Z,96448.25
2023-01-09T14:14:02.710Z,96439.78
2023-01-09T14:16:32.704Z,96454.94
2023-01-09T14:19:10.089Z,96451.97
2023-01-09T14:21:50.527Z,96463.13
2023-01-09T14:24:23.791Z,96473.78
2023-01-09T14:26:57.099Z,96472.63
2023-01-09T14:30:17.391Z,96481.81
2023-01-09T14:32:46.913Z,96487.00
2023-01-09T14:35:20.674Z,96491.00
2023-01-09T14:38:02.679Z,96485.16
2023-01-09T14:40:32.340Z,96486.91
2023-01-09T14:43:13.845Z,96484.28
2023-01-09T14:45:49.962Z,96497.69
2023-01-09T14:48:19.429Z,96491.50
2023-01-09T14:50:55.252Z,96500.00
2023-01-09T14:53:27.565Z,96517.97
2023-01-09T14:55:57.945Z,96514.06
2023-01-09T14:58:29.171Z,96511.50
2023-01-09T15:01:01.309Z,96524.56
2023-01-09T15:03:35.726Z,96531.41
2023-01-09T15:06:05.015Z,96531.63
2023-01-09T15:08:34.922Z,96532.31
2023-01-09T15:11:03.988Z,96532.53
2023-01-09T15:13:36.096Z,96537.56
2023-01-09T15:16:06.651Z,96548.34
2023-01-09T15:18:42.825Z,96554.78
2023-01-09T15:21:20.740Z,96555.84
2023-01-09T15:23:50.992Z,96569.53
2023-01-09T15:26:26.868Z,96565.44
2023-01-09T15:29:02.419Z,96573.03
2023-01-09T15:31:31.343Z,96574.31
2023-01-09T15:33:59.844Z,96580.28
2023-01-09T15:36:30.906Z,96576.97
2023-01-09T15:39:01.397Z,96583.88
2023-01-09T15:41:49.278Z,96586.88
2023-01-09T15:44:21.930Z,96589.75
2023-01-09T15:46:51.908Z,96583.44
2023-01-09T15:49:20.815Z,96593.78
2023-01-09T15:51:50.469Z,96595.06
2023-01-09T15:54:29.525Z,96596.31
2023-01-09T15:57:34.033Z,96597.69
2023-01-09T16:00:45.471Z,96599.75
2023-01-09T16:03:23.495Z,96606.88
2023-01-09T16:05:57.882Z,96608.59
2023-01-09T16:08:30.069Z,96599.31
2023-01-09T16:11:04.315Z,96602.53
2023-01-09T16:13:38.619Z,96614.03
2023-01-09T16:16:08.197Z,96614.03
2023-01-09T16:18:38.577Z,96616.78
2023-01-09T16:21:32.729Z,96616.09
2023-01-09T16:24:04.261Z,96630.00
2023-01-09T16:26:34.986Z,96627.72
2023-01-09T16:29:29.483Z,96635.63
2023-01-09T16:32:02.218Z,96640.94
2023-01-09T16:34:31.857Z,96652.06
2023-01-09T16:37:02.800Z,96661.63
2023-01-09T16:39:31.512Z,96662.41
2023-01-09T16:42:19.209Z,96664.72
2023-01-09T16:44:47.672Z,96667.13
2023-01-09T16:47:16.212Z,96666.47
2023-01-09T16:49:44.743Z,96675.22
2023-01-09T16:52:16.908Z,96678.44
2023-01-09T16:54:46.815Z,96680.03
2023-01-09T16:57:18.787Z,96683.94
2023-01-09T16:59:47.619Z,96676.47
2023-01-09T17:02:19.082Z,96692.34
2023-01-09T17:04:47.948Z,96695.78
2023-01-09T17:07:17.843Z,96696.59
2023-01-09T17:09:47.567Z,96698.53
2023-01-09T17:12:19.980Z,96708.31
2023-01-09T17:14:48.719Z,96711.53
2023-01-09T17:17:17.813Z,96717.03
2023-01-09T17:19:46.729Z,96715.56
2023-01-09T17:22:15.776Z,96715.22
2023-01-09T17:25:01.767Z,96721.41
2023-01-09T17:27:52.069Z,96717.97
2023-01-09T17:30:21.340Z,96721.88
2023-01-09T17:32:50.306Z,96717.41
2023-01-09T17:35:18.888Z,96735.56
2023-01-09T17:37:47.373Z,96723.03
2023-01-09T17:40:21.379Z,96731.09
2023-01-09T17:42:51.085Z,96738.34
2023-01-09T17:45:19.602Z,96734.09
2023-01-09T17:47:48.092Z,96731.81
2023-01-09T17:50:20.429Z,96737.31
2023-01-09T17:52:49.346Z,96739.63
2023-01-09T17:55:17.996Z,96745.28
2023-01-09T17:57:46.528Z,96746.31
2023-01-09T18:00:26.543Z,96759.88
2023-01-09T18:02:55.361Z,96754.38
2023-01-09T18:05:25.017Z,96756.09
2023-01-09T18:07:53.466Z,96753.69
2023-01-09T18:10:24.466Z,96764.47
2023-01-09T18:12:55.463Z,96759.19
2023-01-09T18:15:25.357Z,96772.41
2023-01-09T18:17:53.932Z,96771.81
2023-01-09T18:20:22.443Z,96772.50
2023-01-09T18:22:51.568Z,96776.28
2023-01-09T18:25:20.177Z,96771.81
2023-01-09T18:27:51.694Z,96783.75
2023-01-09T18:30:20.514Z,96786.13
2023-01-09T18:32:50.340Z,96790.91
2023-01-09T18:35:18.923Z,96796.50
2023-01-09T18:37:48.173Z,96797.38
2023-01-09T18:40:17.002Z,96803.78
2023-01-09T18:42:46.544Z,96806.75
2023-01-09T18:45:15.196Z,96809.69
2023-01-09T18:47:43.738Z,96817.38
2023-01-09T18:50:13.976Z,96827.81
2023-01-09T18:52:43.400Z,96832.03
2023-01-09T18:55:11.964Z,96832.38
2023-01-09T18:57:40.409Z,96843.41
2023-01-09T19:00:11.592Z,96847.31
2023-01-09T19:02:40.228Z,96854.75
2023-01-09T19:05:09.370Z,96857.84
2023-01-09T19:07:39.277Z,96856.56
2023-01-09T19:10:09.117Z,96866.31
2023-01-09T19:12:37.789Z,96872.16
2023-01-09T19:15:10.889Z,96881.56
2023-01-09T19:17:39.883Z,96876.38
2023-01-09T19:20:09.728Z,96883.84
2023-01-09T19:22:39.579Z,96882.56
2023-01-09T19:25:08.693Z,96889.22
2023-01-09T19:27:37.351Z,96893.13
2023-01-09T19:30:07.255Z,96898.16
2023-01-09T19:32:37.310Z,96903.66
2023-01-09T19:35:06.608Z,96913.06
2023-01-09T19:37:37.118Z,96918.09
2023-01-09T19:40:08.046Z,96934.63
2023-01-09T19:42:36.525Z,96934.63
2023-01-09T19:45:05.837Z,96933.00
2023-01-09T19:47:36.009Z,96937.72
2023-01-09T19:50:05.709Z,96942.41
2023-01-09T19:52:34.386Z,96940.78
2023-01-09T19:55:02.896Z,96946.31
2023-01-09T19:57:32.806Z,96952.94
2023-01-09T20:00:01.279Z,96952.94
2023-01-09T20:02:29.896Z,96955.22
2023-01-09T20:04:58.444Z,96968.19
2023-01-09T20:07:26.939Z,96974.50
2023-01-09T20:09:56.053Z,96977.59
2023-01-09T20:12:24.515Z,96991.03
2023-01-09T20:14:54.392Z,97005.63
2023-01-09T20:17:22.842Z,96997.69
2023-01-09T20:19:51.538Z,96994.94
2023-01-09T20:22:19.994Z,97005.94
2023-01-09T20:24:48.405Z,96999.63
2023-01-09T20:27:16.887Z,97005.94
2023-01-09T20:29:45.401Z,97010.66
2023-01-09T20:32:15.233Z,97007.09
2023-01-09T20:34:43.782Z,97016.81
2023-01-09T20:37:12.624Z,97022.94
2023-01-09T20:39:41.177Z,97024.41
2023-01-09T20:42:09.620Z,97020.69
2023-01-09T20:44:38.049Z,97028.81
2023-01-09T20:47:06.519Z,97029.13
2023-01-09T20:49:36.305Z,97036.44
2023-01-09T20:52:04.992Z,97033.19
2023-01-09T20:54:33.460Z,97034.66
2023-01-09T20:57:01.858Z,97038.88
2023-01-09T20:59:30.390Z,97043.09
2023-01-09T21:01:58.908Z,97055.56
2023-01-09T21:04:29.510Z,97056.69
2023-01-09T21:06:59.456Z,97061.72
2023-01-09T21:09:29.171Z,97062.38
2023-01-09T21:11:57.767Z,97056.72
2023-01-09T21:14:26.229Z,97059.78
2023-01-09T21:16:55.409Z,97065.28
2023-01-09T21:19:24.139Z,97064.81
2023-01-09T21:21:53.594Z,97071.44
2023-01-09T21:24:23.570Z,97077.28
2023-01-09T21:26:52.089Z,97073.72
2023-01-09T21:29:20.562Z,97081.47
2023-01-09T21:31:49.050Z,97081.47
2023-01-09T21:34:20.530Z,97079.06
2023-01-09T21:36:49.649Z,97083.75
2023-01-09T21:39:19.538Z,97084.88
2023-01-09T21:42:07.057Z,97087.63
2023-01-09T21:44:53.404Z,97095.91
2023-01-09T21:47:22.797Z,97097.03
2023-01-09T21:49:51.296Z,97109.16
2023-01-09T21:52:20.978Z,97110.28
2023-01-09T21:54:49.434Z,97116.94
2023-01-09T21:57:19.333Z,97118.88
2023-01-09T21:59:47.905Z,97121.94
2023-01-09T22:02:16.760Z,97121.94
2023-01-09T22:04:48.825Z,97127.47
2023-01-09T22:07:17.501Z,97131.34
2023-01-09T22:09:46.016Z,97133.59
2023-01-09T22:12:14.485Z,97139.91
2023-01-09T22:14:44.437Z,97145.75
2023-01-09T22:17:12.887Z,97144.13
2023-01-09T22:19:41.332Z,97154.00
2023-01-09T22:22:09.776Z,97150.44
2023-01-09T22:24:38.352Z,97145.25
2023-01-09T22:27:07.036Z,97154.63
2023-01-09T22:29:35.555Z,97158.53
2023-01-09T22:32:05.745Z,97168.41
2023-01-09T22:34:34.259Z,97176.66
2023-01-09T22:37:03.137Z,97169.53
2023-01-09T22:39:31.685Z,97174.22
2023-01-09T22:42:00.093Z,97178.91
2023-01-09T22:44:28.485Z,97185.56
2023-01-09T22:46:58.317Z,97175.66
2023-01-09T22:49:30.365Z,97192.19
2023-01-09T22:52:01.909Z,97190.56
2023-01-09T22:54:30.353Z,97188.94
2023-01-09T22:56:58.881Z,97202.69
2023-01-09T22:59:27.842Z,97198.81
2023-01-09T23:01:57.710Z,97202.69
2023-01-09T23:04:26.267Z,97203.81
2023-01-09T23:06:56.061Z,97212.41
2023-01-09T23:09:25.142Z,97217.59
2023-01-09T23:12:06.109Z,97218.72
2023-01-09T23:14:37.145Z,97219.53
2023-01-09T23:17:06.757Z,97223.41
2023-01-09T23:19:35.466Z,97216.28
2023-01-09T23:22:06.145Z,97222.59
2023-01-09T23:24:35.029Z,97223.72
2023-01-09T23:27:04.301Z,97230.34
2023-01-09T23:29:32.824Z,97233.09
2023-01-09T23:32:01.406Z,97237.47
2023-01-09T23:34:29.893Z,97238.59
2023-01-09T23:36:58.304Z,97239.75
2023-01-09T23:39:28.146Z,97242.50
2023-01-09T23:42:13.890Z,97243.63
2023-01-09T23:44:42.301Z,97246.38
2023-01-09T23:47:10.716Z,97243.63
2023-01-09T23:49:39.573Z,97246.38
2023-01-09T23:52:08.694Z,97248.31
2023-01-09T23:54:38.560Z,97257.69
2023-01-09T23:57:07.028Z,97263.19
2023-01-09T23:59:35.396Z,97272.25
